createdAt,value
2023-12-02T00:00:44.947Z,36.38
2023-12-02T00:03:11.741Z,40.00
2023-12-02T00:05:39.194Z,42.97
2023-12-02T00:08:05.963Z,48.33
2023-12-02T00:10:33.297Z,41.97
2023-12-02T00:12:59.956Z,46.40
2023-12-02T00:15:27.352Z,42.83
2023-12-02T00:17:55.175Z,43.72
2023-12-02T00:20:22.259Z,45.30
2023-12-02T00:22:48.981Z,40.15
2023-12-02T00:25:15.994Z,42.40
2023-12-02T00:27:43.280Z,39.40
2023-12-02T00:30:10.609Z,35.53
2023-12-02T00:32:38.268Z,38.40
2023-12-02T00:35:05.433Z,35.65
2023-12-02T00:37:32.782Z,39.20
2023-12-02T00:39:59.471Z,37.90
2023-12-02T00:42:26.926Z,37.67
2023-12-02T00:44:53.726Z,38.65
2023-12-02T00:47:21.087Z,43.47
2023-12-02T00:49:48.042Z,41.58
2023-12-02T00:52:15.904Z,40.65
2023-12-02T00:54:42.648Z,38.92
2023-12-02T00:57:10.073Z,38.15
2023-12-02T00:59:36.794Z,39.63
2023-12-02T01:02:04.280Z,37.35
2023-12-02T01:04:30.995Z,37.85
2023-12-02T01:06:58.379Z,41.63
2023-12-02T01:09:25.490Z,41.03
2023-12-02T01:11:52.901Z,39.40
2023-12-02T01:14:19.579Z,42.97
2023-12-02T01:16:46.894Z,41.65
2023-12-02T01:19:13.613Z,36.10
2023-12-02T01:21:40.268Z,34.95
2023-12-02T01:24:08.180Z,36.30
2023-12-02T01:26:34.893Z,36.88
2023-12-02T01:29:02.782Z,37.65
2023-12-02T01:31:29.480Z,38.00
2023-12-02T01:33:56.885Z,38.28
2023-12-02T01:36:23.765Z,38.78
2023-12-02T01:38:51.079Z,36.72
2023-12-02T01:41:17.950Z,36.22
2023-12-02T01:43:45.507Z,40.42
2023-12-02T01:46:16.366Z,35.10
2023-12-02T01:48:44.494Z,34.00
2023-12-02T01:51:11.582Z,37.47
2023-12-02T01:53:40.690Z,34.67
2023-12-02T01:56:08.177Z,36.55
2023-12-02T01:58:37.832Z,31.90
2023-12-02T02:01:06.009Z,34.42
2023-12-02T02:03:34.204Z,33.10
2023-12-02T02:06:01.462Z,32.90
2023-12-02T02:08:29.074Z,33.58
2023-12-02T02:10:59.676Z,34.13
2023-12-02T02:13:27.493Z,31.10
2023-12-02T02:15:54.982Z,30.20
2023-12-02T02:18:22.465Z,29.83
2023-12-02T02:20:51.158Z,29.98
2023-12-02T02:23:22.888Z,28.92
2023-12-02T02:25:53.530Z,28.83
2023-12-02T02:28:22.739Z,30.88
2023-12-02T02:30:49.934Z,31.10
2023-12-02T02:33:18.191Z,28.38
2023-12-02T02:35:45.249Z,30.33
2023-12-02T02:38:13.269Z,30.58
2023-12-02T02:40:40.167Z,26.75
2023-12-02T02:43:07.809Z,28.80
2023-12-02T02:45:34.553Z,29.77
2023-12-02T02:48:01.656Z,27.67
2023-12-02T02:50:29.187Z,27.45
2023-12-02T02:52:55.935Z,28.25
2023-12-02T02:55:22.913Z,27.60
2023-12-02T02:57:49.665Z,28.60
2023-12-02T03:00:17.389Z,25.50
2023-12-02T03:02:44.191Z,26.85
2023-12-02T03:05:11.648Z,27.30
2023-12-02T03:07:38.472Z,28.58
2023-12-02T03:10:06.318Z,30.90
2023-12-02T03:12:33.010Z,28.10
2023-12-02T03:15:00.123Z,29.77
2023-12-02T03:17:26.916Z,28.27
2023-12-02T03:19:54.864Z,26.83
2023-12-02T03:22:22.685Z,26.30
2023-12-02T03:24:50.224Z,26.35
2023-12-02T03:27:16.913Z,24.73
2023-12-02T03:29:44.349Z,27.25
2023-12-02T03:32:11.027Z,24.73
2023-12-02T03:34:38.100Z,25.40
2023-12-02T03:37:06.354Z,24.83
2023-12-02T03:39:33.148Z,26.45
2023-12-02T03:42:00.912Z,21.92
2023-12-02T03:44:27.926Z,24.05
2023-12-02T03:46:54.601Z,23.30
2023-12-02T03:49:21.321Z,26.15
2023-12-02T03:51:48.713Z,25.27
2023-12-02T03:54:15.441Z,22.38
2023-12-02T03:56:42.812Z,24.30
2023-12-02T03:59:09.533Z,25.65
2023-12-02T04:01:37.655Z,23.58
2023-12-02T04:04:04.434Z,25.35
2023-12-02T04:06:31.885Z,21.95
2023-12-02T04:08:58.678Z,23.90
2023-12-02T04:11:26.171Z,25.65
2023-12-02T04:13:52.929Z,23.63
2023-12-02T04:16:20.218Z,26.70
2023-12-02T04:18:47.131Z,24.27
2023-12-02T04:21:14.863Z,24.42
2023-12-02T04:23:41.609Z,27.65
2023-12-02T04:26:08.938Z,24.65
2023-12-02T04:28:35.669Z,27.52
2023-12-02T04:31:03.690Z,26.20
2023-12-02T04:33:30.533Z,29.15
2023-12-02T04:35:57.656Z,24.80
2023-12-02T04:38:25.049Z,28.75
2023-12-02T04:40:51.740Z,23.77
2023-12-02T04:43:19.813Z,24.92
2023-12-02T04:45:46.508Z,25.60
2023-12-02T04:48:13.968Z,27.55
2023-12-02T04:50:42.007Z,23.42
2023-12-02T04:53:10.551Z,25.80
2023-12-02T04:55:37.204Z,28.52
2023-12-02T04:58:04.580Z,23.48
2023-12-02T05:00:31.647Z,29.30
2023-12-02T05:02:59.122Z,26.15
2023-12-02T05:05:25.958Z,22.10
2023-12-02T05:07:53.327Z,23.33
2023-12-02T05:10:20.512Z,25.70
2023-12-02T05:12:47.829Z,26.88
2023-12-02T05:15:14.549Z,25.30
2023-12-02T05:17:41.643Z,25.30
2023-12-02T05:20:12.647Z,23.65
2023-12-02T05:22:39.751Z,21.83
2023-12-02T05:25:08.108Z,26.83
2023-12-02T05:27:34.876Z,27.48
2023-12-02T05:30:02.344Z,26.67
2023-12-02T05:32:29.117Z,27.65
2023-12-02T05:34:56.429Z,25.08
2023-12-02T05:37:23.076Z,29.85
2023-12-02T05:39:50.433Z,26.63
2023-12-02T05:42:17.164Z,30.50
2023-12-02T05:44:44.912Z,25.55
2023-12-02T05:47:11.586Z,30.73
2023-12-02T05:49:39.059Z,27.08
2023-12-02T05:52:06.100Z,26.90
2023-12-02T05:54:33.514Z,31.02
2023-12-02T05:57:00.265Z,26.75
2023-12-02T05:59:27.632Z,28.23
2023-12-02T06:01:55.406Z,30.20
2023-12-02T06:04:22.540Z,29.00
2023-12-02T06:06:49.969Z,33.38
2023-12-02T06:09:16.740Z,23.38
2023-12-02T06:11:45.046Z,27.85
2023-12-02T06:14:11.825Z,24.40
2023-12-02T06:16:39.349Z,24.05
2023-12-02T06:19:06.738Z,28.15
2023-12-02T06:21:33.928Z,25.13
2023-12-02T06:24:00.796Z,26.35
2023-12-02T06:26:28.139Z,28.73
2023-12-02T06:28:54.813Z,28.27
2023-12-02T06:31:22.449Z,25.88
2023-12-02T06:33:49.328Z,27.70
2023-12-02T06:36:16.522Z,23.75
2023-12-02T06:38:43.225Z,30.05
2023-12-02T06:41:11.140Z,28.88
2023-12-02T06:43:37.862Z,30.17
2023-12-02T06:46:05.457Z,26.13
2023-12-02T06:48:32.238Z,28.58
2023-12-02T06:50:59.418Z,32.00
2023-12-02T06:53:26.736Z,33.83
2023-12-02T06:55:53.436Z,30.65
2023-12-02T06:58:20.804Z,31.77
2023-12-02T07:00:47.625Z,29.17
2023-12-02T07:03:15.009Z,29.83
2023-12-02T07:05:41.899Z,34.17
2023-12-02T07:08:09.635Z,29.95
2023-12-02T07:10:36.342Z,30.73
2023-12-02T07:13:04.138Z,30.02
2023-12-02T07:15:30.881Z,27.90
2023-12-02T07:17:58.351Z,28.48
2023-12-02T07:20:25.400Z,30.80
2023-12-02T07:22:52.696Z,30.20
2023-12-02T07:25:19.513Z,32.53
2023-12-02T07:27:46.904Z,32.45
2023-12-02T07:32:47.745Z,35.65
2023-12-02T07:35:14.491Z,30.95
2023-12-02T07:37:41.937Z,33.92
2023-12-02T07:40:09.212Z,31.85
2023-12-02T07:42:36.539Z,35.70
2023-12-02T07:45:03.367Z,32.40
2023-12-02T07:47:30.727Z,33.03
2023-12-02T07:49:57.512Z,34.88
2023-12-02T07:52:24.937Z,32.80
2023-12-02T07:54:51.785Z,36.40
2023-12-02T07:57:18.758Z,34.08
2023-12-02T07:59:46.212Z,36.45
2023-12-02T08:02:12.936Z,37.47
2023-12-02T08:04:40.358Z,37.28
2023-12-02T08:07:08.808Z,37.35
2023-12-02T08:09:36.189Z,41.38
2023-12-02T08:12:02.973Z,36.67
2023-12-02T08:14:30.385Z,44.00
2023-12-02T08:16:57.261Z,35.63
2023-12-02T08:19:24.637Z,37.15
2023-12-02T08:21:51.873Z,36.00
2023-12-02T08:24:19.178Z,40.40
2023-12-02T08:26:48.311Z,40.88
2023-12-02T08:29:15.713Z,39.22
2023-12-02T08:31:42.438Z,41.67
2023-12-02T08:34:15.250Z,45.08
2023-12-02T08:36:43.273Z,40.33
2023-12-02T08:39:11.122Z,38.80
2023-12-02T08:41:37.924Z,41.15
2023-12-02T08:44:05.141Z,45.53
2023-12-02T08:46:32.499Z,39.60
2023-12-02T08:48:59.217Z,43.97
2023-12-02T08:51:26.575Z,41.30
2023-12-02T08:53:59.614Z,38.38
2023-12-02T08:56:28.013Z,39.22
2023-12-02T08:58:55.271Z,39.35
2023-12-02T09:01:23.066Z,37.63
2023-12-02T09:03:50.297Z,38.95
2023-12-02T09:06:17.224Z,37.47
2023-12-02T09:08:43.986Z,34.55
2023-12-02T09:11:11.585Z,36.92
2023-12-02T09:13:41.076Z,36.25
2023-12-02T09:16:30.942Z,34.15
2023-12-02T09:18:58.106Z,35.10
2023-12-02T09:21:42.807Z,36.33
2023-12-02T09:24:36.554Z,31.63
2023-12-02T09:27:10.957Z,34.85
2023-12-02T09:29:42.394Z,38.13
2023-12-02T09:32:30.188Z,35.13
2023-12-02T09:35:01.852Z,34.45
2023-12-02T09:37:54.016Z,35.90
2023-12-02T09:40:21.090Z,38.88
2023-12-02T09:43:12.394Z,39.88
2023-12-02T09:46:07.551Z,35.05
2023-12-02T09:48:37.929Z,34.50
2023-12-02T09:51:42.980Z,32.83
2023-12-02T09:54:44.877Z,34.40
2023-12-02T09:57:40.793Z,31.88
2023-12-02T10:00:16.753Z,31.55
2023-12-02T10:03:04.498Z,33.55
2023-12-02T10:05:49.198Z,32.05
2023-12-02T10:08:35.334Z,31.63
2023-12-02T10:11:08.970Z,34.03
2023-12-02T10:13:45.900Z,30.92
2023-12-02T10:16:17.060Z,37.85
2023-12-02T10:18:51.116Z,33.80
2023-12-02T10:21:21.062Z,34.90
2023-12-02T10:24:11.798Z,38.35
2023-12-02T10:27:03.112Z,33.65
2023-12-02T10:29:36.518Z,30.67
2023-12-02T10:32:27.908Z,37.60
2023-12-02T10:35:17.291Z,32.45
2023-12-02T10:37:45.329Z,31.77
2023-12-02T10:40:20.706Z,32.42
2023-12-02T10:43:16.996Z,34.70
2023-12-02T10:45:43.929Z,38.13
2023-12-02T10:48:13.434Z,32.10
2023-12-02T10:50:41.551Z,34.28
2023-12-02T10:53:11.332Z,33.75
2023-12-02T10:55:40.488Z,32.70
2023-12-02T10:58:08.510Z,32.00
2023-12-02T11:00:36.810Z,33.17
2023-12-02T11:03:15.265Z,34.03
2023-12-02T11:06:03.753Z,34.03
2023-12-02T11:09:18.287Z,34.38
2023-12-02T11:12:03.096Z,32.78
2023-12-02T11:14:42.957Z,34.70
2023-12-02T11:17:35.010Z,32.67
2023-12-02T11:20:21.704Z,25.83
2023-12-02T11:23:06.239Z,35.38
2023-12-02T11:25:54.686Z,32.20
2023-12-02T11:28:41.603Z,32.08
2023-12-02T11:31:15.551Z,30.30
2023-12-02T11:34:24.984Z,35.55
2023-12-02T11:37:00.608Z,36.17
2023-12-02T11:39:40.827Z,35.72
2023-12-02T11:42:20.540Z,31.67
2023-12-02T11:45:16.560Z,38.70
2023-12-02T11:48:08.428Z,35.28
2023-12-02T11:50:56.705Z,41.75
2023-12-02T11:53:50.477Z,35.63
2023-12-02T11:56:19.433Z,35.47
2023-12-02T11:59:21.776Z,38.20
2023-12-02T12:02:03.539Z,37.33
2023-12-02T12:04:54.661Z,35.47
2023-12-02T12:07:34.062Z,35.38
2023-12-02T12:10:09.235Z,36.22
2023-12-02T12:12:39.957Z,44.17
2023-12-02T12:15:08.634Z,37.38
2023-12-02T12:17:36.651Z,41.80
2023-12-02T12:20:24.480Z,37.50
2023-12-02T12:22:51.575Z,42.03
2023-12-02T12:25:18.361Z,38.05
2023-12-02T12:27:45.794Z,34.85
2023-12-02T12:30:12.770Z,35.22
2023-12-02T12:32:40.692Z,42.10
2023-12-02T12:35:12.965Z,44.38
2023-12-02T12:37:43.924Z,38.65
2023-12-02T12:40:12.698Z,44.05
2023-12-02T12:42:50.298Z,46.72
2023-12-02T12:45:18.517Z,65.13
2023-12-02T12:47:47.083Z,38.42
2023-12-02T12:50:15.966Z,42.20
2023-12-02T12:52:50.381Z,39.53
2023-12-02T12:55:25.430Z,46.05
2023-12-02T12:57:59.865Z,45.20
2023-12-02T13:00:29.543Z,39.60
2023-12-02T13:03:40.911Z,41.10
2023-12-02T13:06:26.363Z,34.45
2023-12-02T13:09:10.869Z,37.63
2023-12-02T13:12:04.106Z,38.60
2023-12-02T13:17:04.554Z,42.15
2023-12-02T13:19:34.555Z,37.00
2023-12-02T13:22:03.420Z,39.70
2023-12-02T13:24:35.690Z,42.08
2023-12-02T13:27:03.628Z,34.17
2023-12-02T13:29:30.696Z,39.15
2023-12-02T13:31:58.505Z,38.88
2023-12-02T13:34:32.224Z,37.83
2023-12-02T13:37:01.986Z,51.75
2023-12-02T13:39:40.777Z,43.03
2023-12-02T13:42:13.796Z,42.35
2023-12-02T13:44:43.130Z,46.28
2023-12-02T13:47:51.093Z,42.28
2023-12-02T13:50:19.474Z,38.60
2023-12-02T13:53:20.403Z,36.00
2023-12-02T13:56:07.287Z,38.00
2023-12-02T13:58:43.783Z,34.50
2023-12-02T14:01:10.417Z,37.50
2023-12-02T14:04:02.226Z,38.28
2023-12-02T14:06:42.553Z,35.95
2023-12-02T14:09:10.650Z,36.90
2023-12-02T14:11:59.545Z,35.45
2023-12-02T14:14:48.593Z,40.63
2023-12-02T14:17:36.394Z,41.55
2023-12-02T14:20:20.923Z,43.72
2023-12-02T14:23:30.100Z,36.83
2023-12-02T14:26:18.572Z,36.65
2023-12-02T14:29:22.827Z,36.63
2023-12-02T14:32:31.330Z,40.40
2023-12-02T14:35:23.617Z,37.42
2023-12-02T14:38:05.794Z,36.88
2023-12-02T14:41:14.698Z,40.50
2023-12-02T14:44:00.302Z,35.28
2023-12-02T14:46:27.630Z,38.85
2023-12-02T14:48:58.715Z,37.30
2023-12-02T14:51:25.763Z,40.55
2023-12-02T14:53:55.526Z,46.05
2023-12-02T14:56:28.434Z,45.63
2023-12-02T14:58:57.201Z,52.03
2023-12-02T15:01:34.412Z,46.45
2023-12-02T15:04:02.178Z,40.03
2023-12-02T15:06:30.395Z,42.90
2023-12-02T15:09:01.707Z,45.03
2023-12-02T15:11:34.861Z,41.13
2023-12-02T15:14:03.705Z,40.53
2023-12-02T15:16:32.597Z,44.38
2023-12-02T15:19:11.440Z,43.22
2023-12-02T15:22:07.327Z,42.28
2023-12-02T15:24:34.740Z,41.88
2023-12-02T15:27:01.567Z,48.58
2023-12-02T15:29:28.906Z,47.25
2023-12-02T15:31:56.661Z,48.38
2023-12-02T15:34:23.779Z,46.25
2023-12-02T15:36:50.613Z,44.47
2023-12-02T15:39:17.768Z,47.83
2023-12-02T15:41:44.859Z,48.75
2023-12-02T15:44:12.789Z,48.20
2023-12-02T15:46:40.581Z,47.78
2023-12-02T15:49:11.143Z,48.42
2023-12-02T15:51:38.446Z,47.25
2023-12-02T15:54:12.251Z,47.42
2023-12-02T15:56:39.392Z,45.80
2023-12-02T15:59:11.272Z,44.13
2023-12-02T16:01:49.089Z,35.03
2023-12-02T16:04:17.280Z,51.63
2023-12-02T16:06:50.682Z,52.33
2023-12-02T16:09:22.342Z,50.10
2023-12-02T16:11:53.960Z,43.75
2023-12-02T16:14:21.383Z,44.78
2023-12-02T16:16:55.712Z,48.88
2023-12-02T16:19:24.834Z,55.40
2023-12-02T16:21:52.825Z,51.22
2023-12-02T16:24:20.397Z,57.47
2023-12-02T16:26:48.038Z,52.30
2023-12-02T16:29:16.144Z,51.70
2023-12-02T16:31:44.569Z,55.03
2023-12-02T16:34:12.886Z,55.30
2023-12-02T16:36:40.481Z,55.03
2023-12-02T16:39:11.493Z,60.35
2023-12-02T16:41:38.788Z,51.35
2023-12-02T16:44:05.472Z,53.30
2023-12-02T16:46:39.983Z,50.50
2023-12-02T16:49:13.772Z,59.00
2023-12-02T16:51:45.633Z,54.90
2023-12-02T16:54:13.644Z,58.72
2023-12-02T16:56:42.754Z,54.80
2023-12-02T16:59:31.657Z,59.20
2023-12-02T17:01:58.455Z,53.13
2023-12-02T17:04:30.377Z,57.85
2023-12-02T17:06:57.469Z,60.78
2023-12-02T17:09:33.706Z,51.92
2023-12-02T17:12:00.644Z,60.60
2023-12-02T17:14:31.548Z,59.83
2023-12-02T17:17:00.815Z,60.95
2023-12-02T17:19:30.988Z,58.03
2023-12-02T17:22:00.940Z,66.97
2023-12-02T17:24:41.523Z,71.38
2023-12-02T17:27:13.197Z,69.82
2023-12-02T17:29:41.199Z,65.00
2023-12-02T17:32:08.409Z,64.03
2023-12-02T17:34:37.242Z,69.57
2023-12-02T17:37:04.160Z,66.50
2023-12-02T17:39:30.880Z,68.03
2023-12-02T17:41:57.638Z,72.05
2023-12-02T17:44:24.459Z,66.18
2023-12-02T17:46:53.774Z,69.95
2023-12-02T17:49:21.019Z,68.20
2023-12-02T17:51:47.799Z,76.07
2023-12-02T17:54:14.863Z,73.35
2023-12-02T17:56:41.616Z,72.53
2023-12-02T17:59:08.902Z,79.28
2023-12-02T18:01:35.883Z,72.82
2023-12-02T18:04:03.031Z,72.30
2023-12-02T18:06:29.902Z,72.93
2023-12-02T18:08:57.048Z,70.28
2023-12-02T18:11:23.831Z,73.00
2023-12-02T18:13:51.229Z,73.50
2023-12-02T18:16:18.409Z,70.47
2023-12-02T18:18:45.862Z,67.72
2023-12-02T18:21:12.617Z,70.53
2023-12-02T18:23:39.784Z,70.82
2023-12-02T18:26:08.674Z,65.45
2023-12-02T18:28:35.602Z,67.57
2023-12-02T18:31:02.656Z,64.00
2023-12-02T18:33:30.078Z,67.97
2023-12-02T18:35:56.852Z,68.18
2023-12-02T18:38:24.027Z,66.32
2023-12-02T18:40:50.727Z,69.07
2023-12-02T18:43:18.041Z,72.47
2023-12-02T18:45:45.030Z,70.95
2023-12-02T18:48:12.101Z,69.63
2023-12-02T18:50:39.673Z,70.47
2023-12-02T18:53:06.427Z,70.68
2023-12-02T18:55:33.914Z,67.68
2023-12-02T18:58:00.705Z,65.45
2023-12-02T19:00:28.150Z,63.03
2023-12-02T19:02:54.848Z,62.78
2023-12-02T19:05:22.512Z,63.40
2023-12-02T19:07:49.226Z,59.67
2023-12-02T19:10:16.547Z,74.45
2023-12-02T19:12:43.300Z,64.25
2023-12-02T19:15:10.744Z,73.75
2023-12-02T19:17:37.461Z,67.10
2023-12-02T19:20:05.499Z,64.70
2023-12-02T19:22:32.221Z,68.18
2023-12-02T19:24:59.753Z,69.57
2023-12-02T19:27:26.645Z,73.68
2023-12-02T19:29:53.387Z,71.35
2023-12-02T19:32:20.489Z,71.30
2023-12-02T19:34:47.211Z,72.43
2023-12-02T19:37:14.530Z,74.60
2023-12-02T19:39:41.221Z,60.38
2023-12-02T19:42:09.277Z,65.22
2023-12-02T19:44:36.233Z,68.40
2023-12-02T19:47:06.197Z,76.63
2023-12-02T19:49:34.351Z,81.10
2023-12-02T19:52:02.550Z,69.45
2023-12-02T19:54:30.155Z,75.43
2023-12-02T19:56:57.280Z,78.68
2023-12-02T19:59:24.897Z,78.32
2023-12-02T20:01:52.297Z,80.65
2023-12-02T20:04:19.423Z,73.93
2023-12-02T20:06:47.113Z,69.45
2023-12-02T20:09:13.836Z,70.82
2023-12-02T20:11:45.172Z,72.13
2023-12-02T20:14:14.224Z,74.22
2023-12-02T20:16:41.925Z,73.95
2023-12-02T20:19:08.723Z,67.28
2023-12-02T20:21:36.678Z,68.68
2023-12-02T20:24:05.405Z,63.25
2023-12-02T20:26:32.861Z,74.70
2023-12-02T20:29:00.746Z,70.07
2023-12-02T20:31:27.555Z,73.30
2023-12-02T20:33:55.036Z,68.07
2023-12-02T20:36:21.930Z,78.70
2023-12-02T20:38:49.292Z,71.20
2023-12-02T20:41:16.074Z,76.30
2023-12-02T20:43:43.180Z,79.43
2023-12-02T20:46:10.002Z,68.60
2023-12-02T20:48:37.438Z,74.28
2023-12-02T20:51:05.258Z,71.32
2023-12-02T20:53:32.745Z,71.75
2023-12-02T20:55:59.430Z,72.22
2023-12-02T20:58:26.998Z,67.63
2023-12-02T21:00:56.104Z,75.57
2023-12-02T21:03:23.653Z,68.32
2023-12-02T21:05:50.457Z,63.97
2023-12-02T21:08:17.744Z,69.63
2023-12-02T21:10:44.454Z,70.63
2023-12-02T21:13:13.443Z,72.07
2023-12-02T21:15:43.565Z,68.85
2023-12-02T21:18:12.795Z,61.42
2023-12-02T21:20:40.424Z,67.78
2023-12-02T21:23:08.918Z,65.25
2023-12-02T21:25:36.065Z,69.55
2023-12-02T21:28:05.266Z,72.80
2023-12-02T21:30:37.943Z,75.80
2023-12-02T21:33:10.559Z,67.97
2023-12-02T21:35:39.574Z,62.35
2023-12-02T21:38:25.521Z,67.20
2023-12-02T21:40:52.235Z,68.15
2023-12-02T21:43:19.661Z,72.18
2023-12-02T21:45:48.246Z,67.70
2023-12-02T21:48:37.801Z,73.38
2023-12-02T21:51:27.960Z,63.90
2023-12-02T21:54:04.491Z,74.35
2023-12-02T21:56:42.282Z,60.00
2023-12-02T21:59:10.273Z,65.93
2023-12-02T22:01:38.326Z,65.20
2023-12-02T22:04:13.653Z,63.88
2023-12-02T22:06:49.889Z,65.93
2023-12-02T22:09:29.107Z,74.00
2023-12-02T22:11:57.376Z,76.35
2023-12-02T22:14:26.264Z,75.38
2023-12-02T22:17:07.258Z,62.67
2023-12-02T22:19:35.949Z,61.30
2023-12-02T22:22:07.122Z,74.78
2023-12-02T22:24:39.160Z,72.63
2023-12-02T22:27:08.668Z,64.50
2023-12-02T22:29:43.993Z,70.75
2023-12-02T22:32:26.203Z,70.82
2023-12-02T22:34:53.774Z,67.20
2023-12-02T22:37:20.541Z,67.40
2023-12-02T22:39:47.938Z,69.50
2023-12-02T22:42:14.802Z,73.32
2023-12-02T22:44:42.222Z,68.85
2023-12-02T22:47:14.716Z,62.80
2023-12-02T22:52:12.032Z,69.10
2023-12-02T22:54:43.292Z,66.57
2023-12-02T22:57:12.466Z,70.03
2023-12-02T22:59:41.163Z,74.05
2023-12-02T23:02:12.992Z,72.60
2023-12-02T23:04:44.067Z,65.88
2023-12-02T23:07:17.836Z,65.90
2023-12-02T23:09:53.717Z,70.75
2023-12-02T23:12:36.082Z,71.45
2023-12-02T23:15:26.357Z,74.55
2023-12-02T23:17:53.683Z,70.85
2023-12-02T23:20:31.049Z,68.65
2023-12-02T23:22:58.546Z,66.75
2023-12-02T23:25:27.251Z,73.60
2023-12-02T23:27:55.340Z,79.00
2023-12-02T23:30:23.098Z,72.07
2023-12-02T23:32:51.949Z,70.95
2023-12-02T23:35:21.983Z,74.65
2023-12-02T23:37:50.870Z,68.07
2023-12-02T23:40:34.155Z,74.75
2023-12-02T23:43:03.020Z,69.10
2023-12-02T23:45:30.528Z,76.40
2023-12-02T23:47:57.841Z,82.40
2023-12-02T23:50:24.868Z,81.25
2023-12-02T23:52:51.623Z,72.35
2023-12-02T23:55:19.094Z,76.70
2023-12-02T23:57:46.868Z,81.80
